Kaweah, California
Current Conditions -  °F | °C
As of 1:55 AM on Friday 31 Oct 2014 (Local Time) from KVIS Reporting Station
NA  
Wind Chill: 55°   Ceiling: NA
Heat Index: 55°   Visibility: 10mi
Dew Point: 41°   Wind: 3mph
Humidity: 58%   Direction: 90°E
Pressure: 29.91"   Gusts: NA
Location:  36.47°N, 118.92°W
Report Text: KVIS 310855Z 09003KT 10SM 13/05 A2991 RMK AO1 54000
Loading
Personal Weather Stations






























Interactive Weather Map
Tropical Storm Tracking
New forecast layout! Learn more

10-Day Weather Forecast

Advertisements
Track Severe Weather on mobile